Time;durP1;ratioP1;P1;durP2;ratioP2;P2;SDS_P1;SDS_P2;PMS_P1;PMS_P2;Temp;Humidity;BMP_temperature;BMP_pressure;BME280_temperature;BME280_humidity;BME280_pressure;Samples;Min_cycle;Max_cycle;Signal;HPM_P1;HPM_P2
2021/03/30 00:02:12;;;;;;;8.27;4.27;;;;;;;;;;5138765;28;20438;-55
2021/03/30 00:04:39;;;;;;;9.03;3.80;;;;;;;;;;5138285;28;20497;-53
2021/03/30 00:07:06;;;;;;;8.47;4.70;;;;;;;;;;5157190;27;20426;-50
2021/03/30 00:09:51;;;;;;;8.83;4.83;;;;;;;;;;5156286;27;20457;-54
2021/03/30 00:12:19;;;;;;;9.50;5.00;;;;;;;;;;5151032;27;20475;-51
2021/03/30 00:14:46;;;;;;;11.47;4.83;;;;;;;;;;5140450;27;20487;-52
2021/03/30 00:17:13;;;;;;;12.70;5.00;;;;;;;;;;5138469;28;20458;-49
2021/03/30 00:19:40;;;;;;;6.70;4.40;;;;;;;;;;5137443;28;20435;-53
2021/03/30 00:22:08;;;;;;;9.57;4.17;;;;;;;;;;5138024;28;20430;-52
2021/03/30 00:24:35;;;;;;;8.20;4.20;;;;;;;;;;5137859;28;20502;-54
2021/03/30 00:27:01;;;;;;;8.50;4.10;;;;;;;;;;5138238;28;20446;-54
2021/03/30 00:29:43;;;;;;;10.30;4.00;;;;;;;;;;5137260;28;20453;-54
2021/03/30 00:32:10;;;;;;;6.80;3.30;;;;;;;;;;5135601;28;20481;-50
2021/03/30 00:34:37;;;;;;;9.63;3.60;;;;;;;;;;5137829;28;20469;-53
2021/03/30 00:37:12;;;;;;;7.80;4.00;;;;;;;;;;5138156;28;20526;-51
2021/03/30 00:39:39;;;;;;;8.10;4.20;;;;;;;;;;5137850;28;20437;-52
2021/03/30 00:42:06;;;;;;;9.23;4.50;;;;;;;;;;5137759;28;20457;-54
2021/03/30 00:44:34;;;;;;;6.23;3.90;;;;;;;;;;5137656;28;20470;-51
2021/03/30 00:47:03;;;;;;;7.10;4.00;;;;;;;;;;5137151;28;20454;-59
2021/03/30 00:49:32;;;;;;;9.37;4.43;;;;;;;;;;5138109;28;20476;-51
2021/03/30 00:52:34;;;;;;;8.20;4.40;;;;;;;;;;5137650;28;20471;-52
2021/03/30 00:55:01;;;;;;;10.27;4.03;;;;;;;;;;5135649;28;20474;-57
2021/03/30 00:57:28;;;;;;;7.13;3.87;;;;;;;;;;5136531;28;20450;-58
2021/03/30 01:00:14;;;;;;;8.30;4.20;;;;;;;;;;5137631;28;20449;-55
2021/03/30 01:02:42;;;;;;;10.63;3.80;;;;;;;;;;5138010;28;20487;-49
2021/03/30 01:05:11;;;;;;;7.43;3.70;;;;;;;;;;5137359;28;20504;-53
2021/03/30 01:07:55;;;;;;;7.13;4.13;;;;;;;;;;5129937;28;20498;-54
2021/03/30 01:10:26;;;;;;;8.43;4.13;;;;;;;;;;5117007;28;20447;-53
2021/03/30 01:13:00;;;;;;;10.55;4.10;;;;;;;;;;5135843;28;20208;-53
2021/03/30 01:15:35;;;;;;;10.35;3.55;;;;;;;;;;5136801;28;20213;-54
2021/03/30 01:18:10;;;;;;;9.23;4.65;;;;;;;;;;5135036;28;20232;-50
2021/03/30 01:20:52;;;;;;;7.60;3.80;;;;;;;;;;5137044;28;20192;-60
2021/03/30 01:23:49;;;;;;;9.27;4.40;;;;;;;;;;5136958;28;20446;-47
2021/03/30 01:26:18;;;;;;;8.45;3.95;;;;;;;;;;5135902;28;20513;-54
2021/03/30 01:28:55;;;;;;;18.63;3.53;;;;;;;;;;5137122;28;20203;-49
2021/03/30 01:31:24;;;;;;;10.67;4.30;;;;;;;;;;5137065;28;20449;-55
2021/03/30 01:33:51;;;;;;;10.40;4.40;;;;;;;;;;5136963;28;20447;-53
2021/03/30 01:36:21;;;;;;;8.07;3.87;;;;;;;;;;5137335;28;20192;-57
2021/03/30 01:38:51;;;;;;;8.80;3.40;;;;;;;;;;5137091;28;20848;-52
2021/03/30 01:41:19;;;;;;;7.57;4.30;;;;;;;;;;5136656;28;20464;-53
2021/03/30 01:43:49;;;;;;;8.07;3.87;;;;;;;;;;5136302;28;20480;-57
2021/03/30 01:46:16;;;;;;;9.77;4.07;;;;;;;;;;5136940;28;20494;-51
2021/03/30 01:48:45;;;;;;;8.87;3.90;;;;;;;;;;5136793;28;20215;-51
2021/03/30 01:51:13;;;;;;;7.22;3.78;;;;;;;;;;5137067;28;20433;-51
2021/03/30 01:53:42;;;;;;;5.50;3.90;;;;;;;;;;5136077;28;20208;-51
2021/03/30 01:56:09;;;;;;;9.50;4.20;;;;;;;;;;5136873;28;20211;-50
2021/03/30 01:58:57;;;;;;;6.80;3.50;;;;;;;;;;5136825;28;20450;-47
2021/03/30 02:01:24;;;;;;;8.18;3.38;;;;;;;;;;5134837;28;20454;-54
2021/03/30 02:03:52;;;;;;;5.83;3.40;;;;;;;;;;5136827;28;20231;-55
2021/03/30 02:06:19;;;;;;;8.80;3.57;;;;;;;;;;5136322;28;20523;-49
2021/03/30 02:08:47;;;;;;;9.98;3.22;;;;;;;;;;5136525;28;20426;-45
2021/03/30 02:14:17;;;;;;;7.80;4.50;;;;;;;;;;5138964;28;20194;-56
2021/03/30 02:16:49;;;;;;;8.85;4.45;;;;;;;;;;5141171;28;20197;-52
2021/03/30 02:19:21;;;;;;;8.20;4.00;;;;;;;;;;5140637;28;20197;-52
2021/03/30 02:21:52;;;;;;;9.90;5.15;;;;;;;;;;5140835;28;20211;-51
2021/03/30 02:24:21;;;;;;;9.38;4.22;;;;;;;;;;5140469;28;20209;-51
2021/03/30 02:30:16;;;;;;;7.30;3.67;;;;;;;;;;5140046;28;20214;-58
2021/03/30 02:32:43;;;;;;;10.60;4.55;;;;;;;;;;5138590;28;20233;-60
2021/03/30 02:35:13;;;;;;;11.32;4.47;;;;;;;;;;5140467;28;20205;-58
2021/03/30 02:38:06;;;;;;;8.55;4.80;;;;;;;;;;5140843;28;20238;-50
2021/03/30 02:40:33;;;;;;;13.60;5.63;;;;;;;;;;5138540;28;20239;-48
2021/03/30 02:43:01;;;;;;;6.97;3.67;;;;;;;;;;5139812;28;20208;-44
2021/03/30 02:45:29;;;;;;;11.07;5.40;;;;;;;;;;5139903;28;20311;-51
2021/03/30 02:47:57;;;;;;;7.32;4.40;;;;;;;;;;5140324;28;20193;-51
2021/03/30 02:50:36;;;;;;;8.70;5.60;;;;;;;;;;5140523;28;20196;-52
2021/03/30 02:53:04;;;;;;;7.32;4.43;;;;;;;;;;5139922;28;20189;-55
2021/03/30 02:55:33;;;;;;;5.72;3.33;;;;;;;;;;5139913;28;20208;-50
2021/03/30 02:58:28;;;;;;;11.80;5.68;;;;;;;;;;5140018;28;20223;-45
2021/03/30 03:00:55;;;;;;;9.68;4.57;;;;;;;;;;5139767;28;20212;-55
2021/03/30 03:03:23;;;;;;;13.73;4.82;;;;;;;;;;5139934;28;20200;-56
2021/03/30 03:06:06;;;;;;;8.45;4.15;;;;;;;;;;5139097;28;20239;-51
2021/03/30 03:08:33;;;;;;;10.00;4.95;;;;;;;;;;5139277;28;20196;-55
2021/03/30 03:11:01;;;;;;;6.70;3.90;;;;;;;;;;5139192;28;20211;-50
2021/03/30 03:13:35;;;;;;;8.65;3.78;;;;;;;;;;5139444;28;20236;-56
2021/03/30 03:16:02;;;;;;;6.95;4.20;;;;;;;;;;5138873;28;20201;-58
2021/03/30 03:18:31;;;;;;;9.85;4.75;;;;;;;;;;5136020;28;20209;-54
2021/03/30 03:24:03;;;;;;;7.47;4.35;;;;;;;;;;5129397;28;20216;-52
2021/03/30 03:26:32;;;;;;;7.82;4.50;;;;;;;;;;5138685;28;20235;-52
2021/03/30 03:29:13;;;;;;;9.30;5.82;;;;;;;;;;5136684;28;20204;-53
2021/03/30 03:31:41;;;;;;;8.23;4.75;;;;;;;;;;5134371;28;20192;-49
2021/03/30 03:34:08;;;;;;;7.40;4.30;;;;;;;;;;5138698;28;20203;-50
2021/03/30 03:36:38;;;;;;;7.25;4.40;;;;;;;;;;5138740;28;20237;-59
2021/03/30 03:39:07;;;;;;;7.20;4.18;;;;;;;;;;5138635;28;20268;-54
2021/03/30 03:41:34;;;;;;;8.02;3.80;;;;;;;;;;5138709;28;20192;-59
2021/03/30 03:44:13;;;;;;;8.60;4.50;;;;;;;;;;5121656;28;20292;-54
2021/03/30 03:46:41;;;;;;;10.48;4.82;;;;;;;;;;5128298;28;20208;-53
2021/03/30 03:49:09;;;;;;;10.27;5.70;;;;;;;;;;5139171;28;20201;-56
2021/03/30 03:51:56;;;;;;;17.60;6.82;;;;;;;;;;5125462;28;20395;-50
2021/03/30 03:54:38;;;;;;;9.10;4.78;;;;;;;;;;5131325;28;20208;-56
2021/03/30 03:57:10;;;;;;;8.52;4.70;;;;;;;;;;5138428;28;20213;-56
2021/03/30 03:59:44;;;;;;;11.07;5.30;;;;;;;;;;5138190;28;20199;-58
2021/03/30 04:02:12;;;;;;;10.38;4.32;;;;;;;;;;5123091;28;20193;-54
2021/03/30 04:04:51;;;;;;;17.27;5.28;;;;;;;;;;5134507;28;20217;-54
2021/03/30 04:07:20;;;;;;;15.13;4.32;;;;;;;;;;5123170;28;20252;-55
2021/03/30 04:09:49;;;;;;;7.75;4.25;;;;;;;;;;5137863;28;20279;-55
2021/03/30 04:12:18;;;;;;;12.32;6.28;;;;;;;;;;5138109;28;20200;-51
2021/03/30 04:14:45;;;;;;;9.95;6.53;;;;;;;;;;5137760;28;20205;-51
2021/03/30 04:17:15;;;;;;;9.52;6.40;;;;;;;;;;5138345;28;20235;-49
2021/03/30 04:19:54;;;;;;;13.02;7.15;;;;;;;;;;5137713;28;20203;-52
2021/03/30 04:22:21;;;;;;;11.65;6.43;;;;;;;;;;5137790;28;20269;-48
2021/03/30 04:24:48;;;;;;;10.27;5.90;;;;;;;;;;5137315;28;20225;-54
2021/03/30 04:27:49;;;;;;;12.32;5.72;;;;;;;;;;5138173;28;20208;-53
2021/03/30 04:30:16;;;;;;;13.48;5.15;;;;;;;;;;5137749;28;20208;-55
2021/03/30 04:32:43;;;;;;;9.48;5.20;;;;;;;;;;5136558;28;20204;-55
2021/03/30 04:35:10;;;;;;;8.82;5.28;;;;;;;;;;5137593;28;20205;-52
2021/03/30 04:37:39;;;;;;;14.05;4.85;;;;;;;;;;5138051;28;20268;-51
2021/03/30 04:40:26;;;;;;;6.80;4.07;;;;;;;;;;5120183;28;20196;-61
2021/03/30 04:42:55;;;;;;;12.20;5.70;;;;;;;;;;5133953;28;20223;-53
2021/03/30 04:45:26;;;;;;;8.20;4.95;;;;;;;;;;5137729;28;20217;-54
2021/03/30 04:48:12;;;;;;;8.13;4.50;;;;;;;;;;5134031;28;20197;-48
2021/03/30 04:50:39;;;;;;;11.23;4.53;;;;;;;;;;5136774;28;20208;-51
2021/03/30 04:53:06;;;;;;;15.73;5.85;;;;;;;;;;5136887;28;20220;-54
2021/03/30 04:55:55;;;;;;;10.23;4.85;;;;;;;;;;5137160;28;20193;-54
2021/03/30 04:58:22;;;;;;;12.40;5.28;;;;;;;;;;5137330;28;20208;-55
2021/03/30 05:01:01;;;;;;;8.10;4.93;;;;;;;;;;5137070;28;20208;-53
2021/03/30 05:03:48;;;;;;;11.48;6.00;;;;;;;;;;5137137;28;20232;-56
2021/03/30 05:06:14;;;;;;;13.85;5.40;;;;;;;;;;5137102;28;20232;-53
2021/03/30 05:08:41;;;;;;;11.80;6.18;;;;;;;;;;5136884;28;20200;-53
2021/03/30 05:11:28;;;;;;;12.82;5.55;;;;;;;;;;5136620;28;20204;-50
2021/03/30 05:13:55;;;;;;;12.38;5.30;;;;;;;;;;5116242;28;20205;-48
2021/03/30 05:16:22;;;;;;;10.13;4.68;;;;;;;;;;5130962;28;20192;-54
2021/03/30 05:21:52;;;;;;;11.65;5.72;;;;;;;;;;5115913;28;20215;-55
2021/03/30 05:24:21;;;;;;;17.20;6.90;;;;;;;;;;5116851;28;20208;-54
2021/03/30 05:27:03;;;;;;;14.90;5.50;;;;;;;;;;5136218;28;20218;-54
2021/03/30 05:29:31;;;;;;;9.50;4.90;;;;;;;;;;5135527;28;20226;-52
2021/03/30 05:31:58;;;;;;;9.38;5.40;;;;;;;;;;5135535;28;20253;-56
2021/03/30 05:34:29;;;;;;;8.27;4.47;;;;;;;;;;5136687;28;20204;-54
2021/03/30 05:36:56;;;;;;;8.70;5.45;;;;;;;;;;5135846;28;20176;-46
2021/03/30 05:39:32;;;;;;;13.15;5.68;;;;;;;;;;5130011;28;20205;-50
2021/03/30 05:42:01;;;;;;;7.80;5.65;;;;;;;;;;5121027;28;20207;-54
2021/03/30 05:44:29;;;;;;;14.50;4.97;;;;;;;;;;5133351;28;20236;-49
2021/03/30 05:47:09;;;;;;;8.27;4.50;;;;;;;;;;5136109;28;20256;-56
2021/03/30 05:49:49;;;;;;;14.13;5.90;;;;;;;;;;5135564;28;20192;-51
2021/03/30 05:55:18;;;;;;;10.05;4.78;;;;;;;;;;5131021;28;20193;-52
2021/03/30 05:57:45;;;;;;;17.35;6.30;;;;;;;;;;5128893;28;20211;-54
2021/03/30 06:00:15;;;;;;;9.93;5.72;;;;;;;;;;5139855;28;20187;-57
2021/03/30 06:02:49;;;;;;;8.98;5.45;;;;;;;;;;5135960;28;20246;-57
2021/03/30 06:05:17;;;;;;;11.02;5.80;;;;;;;;;;5133873;28;20254;-52
2021/03/30 06:07:44;;;;;;;14.98;7.05;;;;;;;;;;5135589;28;20185;-49
2021/03/30 06:10:23;;;;;;;9.82;6.22;;;;;;;;;;5135952;28;20197;-54
2021/03/30 06:12:50;;;;;;;9.88;5.75;;;;;;;;;;5135535;28;20208;-57
2021/03/30 06:15:17;;;;;;;11.63;6.03;;;;;;;;;;5122840;28;20185;-52
2021/03/30 06:17:47;;;;;;;9.70;5.95;;;;;;;;;;5119199;28;20439;-59
2021/03/30 06:20:17;;;;;;;14.83;6.17;;;;;;;;;;5135837;28;20220;-51
2021/03/30 06:25:49;;;;;;;10.73;6.37;;;;;;;;;;5133323;28;20575;-58
2021/03/30 06:28:17;;;;;;;21.13;6.38;;;;;;;;;;5135258;28;20456;-59
2021/03/30 06:31:11;;;;;;;11.33;6.57;;;;;;;;;;5134346;28;20486;-56
2021/03/30 06:33:47;;;;;;;14.97;6.00;;;;;;;;;;5134618;28;20505;-51
2021/03/30 06:36:26;;;;;;;12.43;5.20;;;;;;;;;;5132734;28;20564;-58
2021/03/30 06:38:55;;;;;;;14.83;5.50;;;;;;;;;;5115705;28;20469;-57
2021/03/30 06:41:38;;;;;;;9.80;4.90;;;;;;;;;;5131071;28;20473;-52
2021/03/30 06:44:51;;;;;;;8.80;5.43;;;;;;;;;;5111664;28;20542;-48
2021/03/30 06:47:53;;;;;;;14.37;6.10;;;;;;;;;;5115762;28;20530;-57
2021/03/30 06:50:28;;;;;;;12.67;5.43;;;;;;;;;;5113938;28;20459;-51
2021/03/30 06:53:21;;;;;;;13.17;6.03;;;;;;;;;;5117408;28;20542;-57
2021/03/30 06:55:56;;;;;;;12.03;5.43;;;;;;;;;;5127369;28;20666;-60
2021/03/30 06:58:30;;;;;;;10.77;5.10;;;;;;;;;;5138625;28;20466;-55
2021/03/30 07:01:35;;;;;;;11.43;5.30;;;;;;;;;;5130891;28;20495;-56
2021/03/30 07:04:05;;;;;;;12.50;5.17;;;;;;;;;;5134712;28;20573;-52
2021/03/30 07:06:35;;;;;;;12.43;5.87;;;;;;;;;;5140657;27;20496;-56
2021/03/30 07:09:12;;;;;;;19.00;5.93;;;;;;;;;;5138084;28;20794;-57
2021/03/30 07:11:39;;;;;;;11.63;4.90;;;;;;;;;;5137478;28;20493;-52
2021/03/30 07:14:07;;;;;;;12.30;4.73;;;;;;;;;;5137306;28;20415;-53
2021/03/30 07:17:02;;;;;;;13.30;5.13;;;;;;;;;;5137701;28;20458;-50
2021/03/30 07:19:35;;;;;;;15.23;5.40;;;;;;;;;;5137982;27;20446;-50
2021/03/30 07:22:04;;;;;;;10.73;5.30;;;;;;;;;;5127752;28;20485;-50
2021/03/30 07:25:04;;;;;;;9.40;5.50;;;;;;;;;;5117547;28;20477;-53
2021/03/30 07:27:36;;;;;;;11.13;5.03;;;;;;;;;;5128413;28;20511;-54
2021/03/30 07:30:13;;;;;;;15.73;4.90;;;;;;;;;;5133625;28;20427;-55
2021/03/30 07:33:06;;;;;;;16.63;6.87;;;;;;;;;;5137639;28;20446;-56
2021/03/30 07:35:39;;;;;;;16.37;5.23;;;;;;;;;;5130275;28;20485;-58
2021/03/30 07:38:10;;;;;;;10.13;4.50;;;;;;;;;;5136585;28;20454;-47
2021/03/30 07:40:40;;;;;;;12.93;5.87;;;;;;;;;;5136430;28;20434;-58
2021/03/30 07:43:09;;;;;;;10.60;5.03;;;;;;;;;;5136125;28;20462;-56
2021/03/30 07:45:38;;;;;;;12.97;5.43;;;;;;;;;;5131036;28;20489;-52
2021/03/30 07:48:07;;;;;;;7.20;4.23;;;;;;;;;;5117785;28;20454;-53
2021/03/30 07:51:01;;;;;;;14.07;5.57;;;;;;;;;;5135166;28;20474;-50
2021/03/30 07:53:40;;;;;;;12.00;5.20;;;;;;;;;;5135957;28;20498;-55
2021/03/30 07:56:08;;;;;;;15.33;4.70;;;;;;;;;;5136951;28;20472;-54
2021/03/30 07:58:42;;;;;;;16.83;6.93;;;;;;;;;;5126779;28;20455;-52
2021/03/30 08:01:11;;;;;;;20.37;6.93;;;;;;;;;;5136260;28;20437;-56
2021/03/30 08:03:45;;;;;;;14.23;6.07;;;;;;;;;;5137763;28;20458;-53
2021/03/30 08:06:20;;;;;;;11.83;5.53;;;;;;;;;;5135950;28;20484;-59
2021/03/30 08:08:52;;;;;;;36.27;9.23;;;;;;;;;;5124087;28;20449;-54
2021/03/30 08:11:40;;;;;;;11.93;5.20;;;;;;;;;;5132983;28;20566;-55
2021/03/30 08:14:09;;;;;;;12.63;5.80;;;;;;;;;;5122395;28;20458;-54
2021/03/30 08:16:54;;;;;;;10.80;5.57;;;;;;;;;;5142649;27;20464;-56
2021/03/30 08:19:25;;;;;;;10.47;4.37;;;;;;;;;;5155977;27;20442;-57
2021/03/30 08:21:52;;;;;;;9.30;4.23;;;;;;;;;;5128627;27;20474;-50
2021/03/30 08:24:19;;;;;;;12.40;4.27;;;;;;;;;;5135289;28;20427;-55
2021/03/30 08:26:53;;;;;;;10.17;4.60;;;;;;;;;;5134135;28;20482;-50
2021/03/30 08:29:23;;;;;;;10.03;3.80;;;;;;;;;;5135860;28;20484;-58
2021/03/30 08:31:51;;;;;;;9.40;4.77;;;;;;;;;;5134622;28;20450;-52
2021/03/30 08:34:22;;;;;;;11.60;4.40;;;;;;;;;;5133068;27;20482;-55
2021/03/30 08:36:50;;;;;;;10.47;5.57;;;;;;;;;;5141369;27;20446;-55
2021/03/30 08:39:35;;;;;;;19.77;7.27;;;;;;;;;;5134124;28;20466;-53
2021/03/30 08:42:09;;;;;;;21.47;7.60;;;;;;;;;;5135353;28;20446;-53
2021/03/30 08:44:45;;;;;;;11.53;5.00;;;;;;;;;;5134910;28;20449;-53
2021/03/30 08:47:33;;;;;;;67.67;16.63;;;;;;;;;;5113019;28;20492;-52
2021/03/30 08:50:23;;;;;;;12.30;4.37;;;;;;;;;;5117197;28;20450;-55
2021/03/30 08:53:19;;;;;;;11.70;5.73;;;;;;;;;;5134535;28;20542;-55
2021/03/30 08:55:46;;;;;;;13.20;6.40;;;;;;;;;;5133961;28;20454;-60
2021/03/30 08:58:13;;;;;;;11.87;6.23;;;;;;;;;;5133267;28;20450;-54
2021/03/30 09:00:46;;;;;;;9.00;4.17;;;;;;;;;;5133900;28;20430;-58
2021/03/30 09:03:19;;;;;;;11.07;5.10;;;;;;;;;;5133785;28;20486;-52
2021/03/30 09:05:46;;;;;;;14.40;5.00;;;;;;;;;;5134133;28;20474;-59
2021/03/30 09:08:14;;;;;;;11.30;4.90;;;;;;;;;;5134529;28;20445;-52
2021/03/30 09:10:41;;;;;;;13.83;6.03;;;;;;;;;;5134529;28;20449;-52
2021/03/30 09:13:12;;;;;;;9.27;4.50;;;;;;;;;;5134480;28;20507;-57
2021/03/30 09:15:39;;;;;;;12.23;7.30;;;;;;;;;;5132923;28;20474;-53
2021/03/30 09:18:09;;;;;;;29.73;14.80;;;;;;;;;;5133965;28;20430;-56
2021/03/30 09:20:37;;;;;;;9.77;6.03;;;;;;;;;;5134743;28;20462;-53
2021/03/30 09:23:15;;;;;;;15.93;5.77;;;;;;;;;;5134435;28;20447;-56
2021/03/30 09:25:52;;;;;;;8.60;4.73;;;;;;;;;;5134422;28;20976;-55
2021/03/30 09:28:21;;;;;;;12.77;5.47;;;;;;;;;;5134692;28;20529;-55
2021/03/30 09:30:50;;;;;;;8.17;4.07;;;;;;;;;;5134881;28;20459;-57
2021/03/30 09:33:24;;;;;;;11.23;6.07;;;;;;;;;;5135012;28;20544;-58
2021/03/30 09:35:50;;;;;;;8.80;5.10;;;;;;;;;;5133527;28;20473;-55
2021/03/30 09:38:19;;;;;;;8.33;4.70;;;;;;;;;;5133968;28;20458;-59
2021/03/30 09:43:52;;;;;;;8.30;4.70;;;;;;;;;;5131551;28;20496;-57
2021/03/30 09:46:19;;;;;;;8.87;4.73;;;;;;;;;;5130720;28;20489;-56
2021/03/30 09:49:12;;;;;;;14.40;5.27;;;;;;;;;;5133684;28;20470;-54
2021/03/30 09:51:45;;;;;;;10.67;5.13;;;;;;;;;;5129867;28;20478;-53
2021/03/30 09:54:19;;;;;;;15.60;5.67;;;;;;;;;;5132265;28;20443;-54
2021/03/30 09:56:46;;;;;;;9.20;5.17;;;;;;;;;;5133035;28;20442;-55
2021/03/30 09:59:17;;;;;;;10.60;4.63;;;;;;;;;;5132931;28;20458;-52
2021/03/30 10:01:46;;;;;;;12.23;4.57;;;;;;;;;;5133979;28;20450;-57
2021/03/30 10:04:12;;;;;;;6.90;4.10;;;;;;;;;;5133682;28;20522;-50
2021/03/30 10:06:40;;;;;;;9.07;5.20;;;;;;;;;;5133098;28;20466;-52
2021/03/30 10:09:29;;;;;;;11.77;5.07;;;;;;;;;;5133033;28;20445;-58
2021/03/30 10:11:56;;;;;;;8.33;4.23;;;;;;;;;;5133845;28;20462;-58
2021/03/30 10:14:26;;;;;;;11.03;4.70;;;;;;;;;;5133932;28;20564;-55
2021/03/30 10:17:04;;;;;;;14.10;5.40;;;;;;;;;;5119931;28;20515;-52
2021/03/30 10:19:32;;;;;;;10.47;5.70;;;;;;;;;;5128818;28;20462;-52
2021/03/30 10:22:03;;;;;;;11.10;5.47;;;;;;;;;;5134231;28;20511;-50
2021/03/30 10:24:32;;;;;;;15.27;6.27;;;;;;;;;;5134244;28;20439;-53
2021/03/30 10:27:10;;;;;;;12.30;7.10;;;;;;;;;;5133701;28;20486;-58
2021/03/30 10:29:52;;;;;;;15.47;7.83;;;;;;;;;;5133941;28;20503;-54
2021/03/30 10:32:31;;;;;;;18.47;10.50;;;;;;;;;;5124678;28;20689;-55
2021/03/30 10:34:59;;;;;;;18.63;8.73;;;;;;;;;;5115964;28;20480;-62
2021/03/30 10:37:27;;;;;;;13.83;8.60;;;;;;;;;;5116617;28;20454;-54
2021/03/30 10:42:57;;;;;;;13.00;6.87;;;;;;;;;;5113618;28;20451;-60
2021/03/30 10:45:35;;;;;;;15.20;7.90;;;;;;;;;;5106570;28;20498;-55
2021/03/30 10:48:17;;;;;;;12.17;6.97;;;;;;;;;;5110930;28;20473;-52
2021/03/30 10:50:46;;;;;;;13.70;7.63;;;;;;;;;;5116358;28;20459;-59
2021/03/30 10:53:17;;;;;;;12.93;7.13;;;;;;;;;;5116406;28;20435;-51
2021/03/30 10:55:50;;;;;;;12.37;6.70;;;;;;;;;;5115785;28;20439;-56
2021/03/30 10:58:18;;;;;;;13.80;7.47;;;;;;;;;;5116176;28;20451;-57
2021/03/30 11:00:45;;;;;;;12.70;6.53;;;;;;;;;;5113460;28;20665;-55
2021/03/30 11:03:12;;;;;;;12.03;6.73;;;;;;;;;;5112861;28;20464;-55
2021/03/30 11:05:39;;;;;;;12.27;6.50;;;;;;;;;;5100981;28;20480;-57
2021/03/30 11:08:12;;;;;;;11.73;6.33;;;;;;;;;;5093888;28;20451;-54
2021/03/30 11:10:40;;;;;;;11.27;5.83;;;;;;;;;;5093676;28;20546;-54
2021/03/30 11:13:07;;;;;;;10.83;6.23;;;;;;;;;;5106188;28;20443;-59
2021/03/30 11:15:42;;;;;;;7.83;4.90;;;;;;;;;;5136318;28;20469;-58
2021/03/30 11:18:10;;;;;;;11.80;5.73;;;;;;;;;;5127693;28;20560;-56
2021/03/30 11:21:22;;;;;;;9.60;5.63;;;;;;;;;;5136160;28;20452;-55
2021/03/30 11:23:49;;;;;;;8.67;5.00;;;;;;;;;;5134612;28;20531;-57
2021/03/30 11:26:25;;;;;;;9.40;5.47;;;;;;;;;;5135572;28;20490;-62
2021/03/30 11:28:55;;;;;;;10.80;5.33;;;;;;;;;;5135938;28;20611;-59
2021/03/30 11:31:45;;;;;;;8.60;5.20;;;;;;;;;;5135329;28;20442;-57
2021/03/30 11:34:23;;;;;;;7.90;5.40;;;;;;;;;;5134384;28;20450;-54
2021/03/30 11:36:54;;;;;;;8.40;4.33;;;;;;;;;;5134130;28;20451;-49
2021/03/30 11:39:20;;;;;;;7.50;4.80;;;;;;;;;;5134265;28;20446;-54
2021/03/30 11:42:02;;;;;;;14.70;5.00;;;;;;;;;;5138798;27;20583;-53
2021/03/30 11:44:29;;;;;;;16.70;4.73;;;;;;;;;;5116860;28;20467;-57
2021/03/30 11:46:58;;;;;;;8.53;4.60;;;;;;;;;;5117173;28;20581;-57
2021/03/30 11:49:43;;;;;;;11.07;5.10;;;;;;;;;;5133622;28;20454;-55
2021/03/30 11:52:10;;;;;;;8.97;5.43;;;;;;;;;;5130457;28;20519;-55
2021/03/30 11:54:37;;;;;;;8.80;4.53;;;;;;;;;;5132716;28;20458;-58
2021/03/30 11:57:06;;;;;;;24.90;6.37;;;;;;;;;;5133103;28;20457;-58
2021/03/30 11:59:32;;;;;;;16.70;4.20;;;;;;;;;;5133728;28;20518;-50
2021/03/30 12:02:02;;;;;;;7.67;4.70;;;;;;;;;;5133789;28;20463;-54
2021/03/30 12:04:31;;;;;;;10.13;4.30;;;;;;;;;;5134020;28;20637;-57
2021/03/30 12:07:06;;;;;;;13.27;5.83;;;;;;;;;;5134235;28;20494;-59
2021/03/30 12:09:34;;;;;;;8.20;5.17;;;;;;;;;;5134844;28;20441;-54
2021/03/30 12:12:00;;;;;;;6.80;4.30;;;;;;;;;;5132556;28;20454;-56
2021/03/30 12:14:35;;;;;;;7.00;4.80;;;;;;;;;;5133256;28;20445;-60
2021/03/30 12:17:16;;;;;;;8.60;4.17;;;;;;;;;;5133363;28;20464;-54
2021/03/30 12:19:47;;;;;;;6.20;3.47;;;;;;;;;;5129079;28;20458;-54
2021/03/30 12:22:14;;;;;;;9.33;4.37;;;;;;;;;;5133675;28;20466;-53
2021/03/30 12:24:41;;;;;;;6.17;2.90;;;;;;;;;;5133420;28;20454;-56
2021/03/30 12:27:15;;;;;;;9.80;3.60;;;;;;;;;;5126397;28;20519;-52
2021/03/30 12:29:42;;;;;;;6.77;3.50;;;;;;;;;;5112846;28;20455;-50
2021/03/30 12:32:11;;;;;;;8.50;3.00;;;;;;;;;;5112034;28;20887;-54
2021/03/30 12:34:40;;;;;;;8.57;3.40;;;;;;;;;;5125383;28;20456;-53
2021/03/30 12:37:09;;;;;;;7.87;5.20;;;;;;;;;;5133519;28;20446;-56
2021/03/30 12:39:36;;;;;;;7.70;4.87;;;;;;;;;;5133078;28;20454;-54
2021/03/30 12:42:03;;;;;;;9.30;3.57;;;;;;;;;;5115544;28;20487;-53
2021/03/30 12:44:31;;;;;;;9.03;3.20;;;;;;;;;;5126743;28;20458;-57
2021/03/30 12:47:07;;;;;;;6.17;3.40;;;;;;;;;;5132379;28;20506;-57
2021/03/30 12:49:36;;;;;;;11.00;3.60;;;;;;;;;;5121012;28;20438;-61
2021/03/30 12:52:03;;;;;;;9.60;4.87;;;;;;;;;;5133011;28;20478;-55
2021/03/30 12:54:30;;;;;;;5.50;3.40;;;;;;;;;;5131512;28;20525;-56
2021/03/30 12:56:57;;;;;;;7.10;3.27;;;;;;;;;;5130152;28;20475;-56
2021/03/30 12:59:29;;;;;;;6.40;2.70;;;;;;;;;;5131426;28;20430;-57
2021/03/30 13:01:58;;;;;;;5.40;2.30;;;;;;;;;;5132437;28;20457;-57
2021/03/30 13:04:26;;;;;;;8.87;4.30;;;;;;;;;;5132095;28;20568;-57
2021/03/30 13:07:20;;;;;;;4.67;2.70;;;;;;;;;;5132552;28;20911;-55
2021/03/30 13:09:48;;;;;;;5.13;2.70;;;;;;;;;;5131505;28;20466;-54
2021/03/30 13:12:15;;;;;;;5.87;2.97;;;;;;;;;;5127280;28;20482;-53
2021/03/30 13:14:43;;;;;;;9.73;2.73;;;;;;;;;;5094575;28;20497;-55
2021/03/30 13:17:13;;;;;;;8.80;4.60;;;;;;;;;;5131479;28;20492;-56
2021/03/30 13:19:55;;;;;;;6.17;3.27;;;;;;;;;;5129724;28;20469;-53
2021/03/30 13:22:24;;;;;;;6.47;2.67;;;;;;;;;;5128438;28;20477;-54
2021/03/30 13:24:50;;;;;;;12.10;2.53;;;;;;;;;;5119312;28;20457;-59
2021/03/30 13:27:18;;;;;;;4.50;2.20;;;;;;;;;;5131686;28;20486;-59
2021/03/30 13:29:56;;;;;;;5.50;2.70;;;;;;;;;;5132563;28;20442;-55
2021/03/30 13:32:24;;;;;;;5.50;2.77;;;;;;;;;;5130441;28;20454;-54
2021/03/30 13:34:52;;;;;;;9.60;3.67;;;;;;;;;;5130297;28;20465;-56
2021/03/30 13:37:27;;;;;;;7.17;3.57;;;;;;;;;;5132106;28;20522;-49
2021/03/30 13:40:07;;;;;;;6.83;2.23;;;;;;;;;;5127507;27;20511;-52
2021/03/30 13:42:33;;;;;;;3.90;1.70;;;;;;;;;;5138982;27;20496;-59
2021/03/30 13:45:02;;;;;;;7.60;2.43;;;;;;;;;;5136122;27;20450;-51
2021/03/30 13:47:32;;;;;;;5.47;3.07;;;;;;;;;;5153920;27;20457;-59
2021/03/30 13:50:07;;;;;;;8.07;3.70;;;;;;;;;;5154204;27;20461;-56
2021/03/30 13:52:53;;;;;;;5.97;3.10;;;;;;;;;;5131780;28;20489;-54
2021/03/30 13:55:45;;;;;;;11.60;2.10;;;;;;;;;;5133316;28;20703;-56
2021/03/30 13:59:06;;;;;;;7.60;2.83;;;;;;;;;;5134322;28;20465;-58
2021/03/30 14:01:41;;;;;;;6.90;2.50;;;;;;;;;;5130800;28;20442;-50
2021/03/30 14:04:09;;;;;;;4.60;2.30;;;;;;;;;;5132585;28;20487;-53
2021/03/30 14:06:35;;;;;;;3.83;1.90;;;;;;;;;;5134327;28;20807;-58
2021/03/30 14:09:17;;;;;;;7.03;2.40;;;;;;;;;;5137199;28;20454;-51
2021/03/30 14:11:53;;;;;;;7.70;2.40;;;;;;;;;;5137381;28;20456;-54
2021/03/30 14:14:30;;;;;;;6.17;2.40;;;;;;;;;;5137338;28;20489;-61
2021/03/30 14:17:04;;;;;;;14.20;3.77;;;;;;;;;;5137784;28;20449;-57
2021/03/30 14:20:05;;;;;;;5.70;2.40;;;;;;;;;;5148330;27;20454;-56
2021/03/30 14:22:34;;;;;;;5.20;2.80;;;;;;;;;;5157028;27;20553;-61
2021/03/30 14:25:07;;;;;;;5.63;2.77;;;;;;;;;;5136658;28;20458;-56
2021/03/30 14:27:36;;;;;;;9.37;3.93;;;;;;;;;;5126114;28;20573;-55
2021/03/30 14:30:03;;;;;;;4.50;2.03;;;;;;;;;;5136635;28;20469;-54
2021/03/30 14:32:31;;;;;;;7.70;2.70;;;;;;;;;;5136633;28;20442;-54
2021/03/30 14:34:58;;;;;;;5.87;3.00;;;;;;;;;;5136278;28;20445;-56
2021/03/30 14:37:32;;;;;;;7.77;3.30;;;;;;;;;;5121483;28;20604;-53
2021/03/30 14:40:15;;;;;;;8.40;3.93;;;;;;;;;;5118566;28;20497;-61
2021/03/30 14:42:47;;;;;;;4.27;2.30;;;;;;;;;;5137022;28;20449;-52
2021/03/30 14:45:20;;;;;;;10.17;3.50;;;;;;;;;;5136196;28;20518;-59
2021/03/30 14:53:28;;;;;;;9.07;3.13;;;;;;;;;;5073648;28;20515;-58
2021/03/30 14:56:16;;;;;;;9.60;3.90;;;;;;;;;;5134676;27;20437;-55
2021/03/30 14:58:54;;;;;;;7.93;2.50;;;;;;;;;;5155800;27;20471;-52
2021/03/30 15:01:35;;;;;;;3.70;1.90;;;;;;;;;;5147540;27;20457;-56
2021/03/30 15:04:34;;;;;;;5.53;1.93;;;;;;;;;;5135061;28;20457;-59
2021/03/30 15:07:05;;;;;;;4.70;2.10;;;;;;;;;;5134847;28;20496;-56
2021/03/30 15:09:33;;;;;;;5.70;2.20;;;;;;;;;;5135475;28;20458;-53
2021/03/30 15:12:01;;;;;;;5.33;2.70;;;;;;;;;;5128819;28;20458;-57
2021/03/30 15:14:27;;;;;;;4.40;2.23;;;;;;;;;;5120252;27;20558;-59
2021/03/30 15:17:01;;;;;;;4.27;2.67;;;;;;;;;;5156454;27;20441;-52
2021/03/30 15:19:33;;;;;;;4.10;1.73;;;;;;;;;;5138688;27;20501;-56
2021/03/30 15:22:00;;;;;;;4.50;2.33;;;;;;;;;;5125215;28;20454;-59
2021/03/30 15:24:31;;;;;;;6.07;3.10;;;;;;;;;;5131455;28;20477;-55
2021/03/30 15:27:20;;;;;;;6.10;3.00;;;;;;;;;;5119386;28;20482;-54
2021/03/30 15:29:51;;;;;;;7.07;2.90;;;;;;;;;;5121146;28;20463;-54
2021/03/30 15:32:19;;;;;;;5.80;1.80;;;;;;;;;;5122079;28;20921;-55
2021/03/30 15:34:49;;;;;;;11.10;3.30;;;;;;;;;;5136000;28;20565;-52
2021/03/30 15:37:16;;;;;;;9.80;2.10;;;;;;;;;;5134562;28;20443;-56
2021/03/30 15:39:47;;;;;;;6.40;2.87;;;;;;;;;;5136098;28;20465;-58
2021/03/30 15:42:18;;;;;;;6.07;2.50;;;;;;;;;;5122410;28;20551;-59